createdAt,value
2022-10-03T00:02:46.522Z,10.98
2022-10-03T00:05:36.155Z,11.43
2022-10-03T00:08:24.456Z,12.27
2022-10-03T00:11:17.806Z,13.57
2022-10-03T00:13:53.321Z,12.93
2022-10-03T00:16:36.661Z,16.80
2022-10-03T00:19:28.523Z,11.68
2022-10-03T00:22:22.050Z,11.50
2022-10-03T00:25:15.873Z,11.48
2022-10-03T00:27:53.719Z,12.18
2022-10-03T00:30:22.891Z,11.50
2022-10-03T00:33:03.160Z,10.82
2022-10-03T00:35:35.536Z,11.02
2022-10-03T00:38:35.861Z,10.85
2022-10-03T00:41:27.858Z,13.50
2022-10-03T00:44:33.025Z,13.27
2022-10-03T00:47:11.619Z,13.27
2022-10-03T00:50:07.664Z,13.05
2022-10-03T00:52:58.518Z,11.35
2022-10-03T00:55:52.838Z,12.25
2022-10-03T00:58:25.863Z,11.48
2022-10-03T01:00:57.913Z,12.63
2022-10-03T01:03:39.092Z,12.98
2022-10-03T01:06:27.244Z,12.95
2022-10-03T01:09:12.018Z,14.30
2022-10-03T01:11:49.639Z,13.27
2022-10-03T01:14:16.531Z,14.02
2022-10-03T01:16:46.298Z,14.68
2022-10-03T01:19:38.651Z,14.25
2022-10-03T01:22:36.309Z,17.30
2022-10-03T01:25:47.883Z,17.35
2022-10-03T01:29:00.110Z,15.70
2022-10-03T01:31:51.252Z,14.80
2022-10-03T01:34:51.276Z,16.17
2022-10-03T01:37:23.779Z,15.73
2022-10-03T01:40:16.231Z,16.30
2022-10-03T01:43:02.847Z,15.85
2022-10-03T01:45:52.650Z,16.48
2022-10-03T01:48:43.718Z,15.85
2022-10-03T01:51:41.525Z,15.57
2022-10-03T01:54:33.173Z,16.23
2022-10-03T01:57:02.798Z,15.40
2022-10-03T01:59:57.011Z,15.13
2022-10-03T02:02:36.152Z,15.57
2022-10-03T02:05:40.381Z,15.70
2022-10-03T02:08:28.160Z,14.77
2022-10-03T02:11:04.287Z,15.95
2022-10-03T02:13:47.833Z,15.82
2022-10-03T02:16:17.607Z,15.57
2022-10-03T02:19:03.197Z,15.15
2022-10-03T02:21:34.249Z,15.75
2022-10-03T02:24:32.439Z,14.85
2022-10-03T02:27:01.785Z,14.38
2022-10-03T02:29:52.615Z,16.30
2022-10-03T02:32:51.910Z,16.75
2022-10-03T02:35:37.145Z,15.75
2022-10-03T02:39:12.445Z,16.42
2022-10-03T02:41:44.446Z,15.85
2022-10-03T02:44:42.773Z,17.00
2022-10-03T02:47:27.618Z,15.60
2022-10-03T02:49:53.922Z,15.73
2022-10-03T02:52:20.282Z,17.23
2022-10-03T02:55:13.518Z,16.35
2022-10-03T02:58:33.316Z,16.25
2022-10-03T03:01:41.791Z,15.30
2022-10-03T03:04:23.561Z,15.95
2022-10-03T03:09:53.013Z,16.60
2022-10-03T03:12:55.368Z,17.85
2022-10-03T03:15:46.625Z,18.60
2022-10-03T03:18:24.636Z,18.42
2022-10-03T03:21:05.520Z,18.05
2022-10-03T03:24:02.788Z,17.63
2022-10-03T03:26:46.893Z,16.55
2022-10-03T03:29:26.162Z,17.52
2022-10-03T03:32:31.076Z,16.80
2022-10-03T03:35:09.907Z,16.27
2022-10-03T03:37:53.287Z,15.55
2022-10-03T03:40:35.072Z,15.82
2022-10-03T03:43:08.627Z,16.55
2022-10-03T03:45:54.381Z,17.40
2022-10-03T03:48:42.200Z,17.13
2022-10-03T03:51:22.707Z,16.88
2022-10-03T03:54:10.950Z,16.37
2022-10-03T03:57:09.181Z,17.25
2022-10-03T03:59:57.185Z,17.02
2022-10-03T04:02:34.299Z,16.20
2022-10-03T04:05:15.901Z,16.40
2022-10-03T04:08:02.455Z,16.92
2022-10-03T04:10:53.749Z,16.05
2022-10-03T04:13:47.678Z,16.08
2022-10-03T04:16:45.406Z,15.77
2022-10-03T04:19:24.592Z,16.13
2022-10-03T04:22:18.062Z,15.50
2022-10-03T04:25:16.255Z,15.75
2022-10-03T04:28:26.584Z,16.98
2022-10-03T04:31:16.855Z,14.98
2022-10-03T04:34:12.442Z,16.63
2022-10-03T04:36:59.833Z,16.77
2022-10-03T04:39:28.945Z,16.90
2022-10-03T04:41:58.724Z,17.83
2022-10-03T04:44:40.376Z,17.40
2022-10-03T04:47:34.155Z,16.65
2022-10-03T04:50:03.224Z,16.88
2022-10-03T04:53:06.133Z,16.88
2022-10-03T04:55:49.947Z,16.33
2022-10-03T04:58:39.059Z,16.52
2022-10-03T05:01:17.736Z,15.77
2022-10-03T05:04:05.870Z,16.30
2022-10-03T05:07:19.898Z,15.88
2022-10-03T05:09:52.954Z,15.23
2022-10-03T05:12:31.185Z,16.20
2022-10-03T05:15:16.673Z,16.85
2022-10-03T05:17:55.933Z,16.10
2022-10-03T05:20:44.597Z,15.27
2022-10-03T05:23:50.189Z,15.05
2022-10-03T05:26:46.307Z,14.40
2022-10-03T05:29:41.819Z,14.10
2022-10-03T05:32:23.109Z,14.23
2022-10-03T05:35:27.181Z,15.63
2022-10-03T05:38:15.498Z,14.73
2022-10-03T05:41:03.149Z,15.07
2022-10-03T05:44:07.086Z,14.95
2022-10-03T05:46:51.977Z,14.43
2022-10-03T05:49:23.640Z,14.10
2022-10-03T05:52:12.449Z,11.52
2022-10-03T05:54:41.931Z,12.57
2022-10-03T05:57:27.061Z,14.02
2022-10-03T06:00:02.531Z,16.90
2022-10-03T06:03:09.103Z,17.35
2022-10-03T06:05:53.696Z,15.82
2022-10-03T06:08:25.914Z,15.75
2022-10-03T06:11:20.389Z,16.20
2022-10-03T06:14:18.068Z,16.20
2022-10-03T06:17:04.375Z,15.50
2022-10-03T06:19:56.642Z,17.02
2022-10-03T06:22:50.674Z,18.88
2022-10-03T06:25:26.332Z,16.77
2022-10-03T06:28:14.991Z,20.75
2022-10-03T06:30:56.676Z,20.35
2022-10-03T06:33:53.524Z,21.38
2022-10-03T06:36:32.535Z,18.77
2022-10-03T06:39:36.462Z,18.25
2022-10-03T06:42:21.825Z,18.67
2022-10-03T06:45:06.421Z,18.05
2022-10-03T06:48:00.654Z,17.20
2022-10-03T06:50:36.097Z,16.40
2022-10-03T06:53:28.432Z,16.65
2022-10-03T06:56:05.747Z,16.10
2022-10-03T06:58:56.994Z,15.20
2022-10-03T07:01:57.400Z,15.15
2022-10-03T07:04:43.878Z,14.73
2022-10-03T07:07:38.833Z,14.98
2022-10-03T07:10:30.046Z,15.38
2022-10-03T07:13:21.383Z,15.45
2022-10-03T07:16:28.558Z,16.40
2022-10-03T07:19:13.534Z,16.08
2022-10-03T07:22:10.407Z,14.73
2022-10-03T07:24:52.159Z,15.70
2022-10-03T07:27:46.317Z,13.95
2022-10-03T07:30:21.737Z,15.60
2022-10-03T07:33:06.374Z,15.38
2022-10-03T07:36:08.223Z,15.82
2022-10-03T07:39:00.645Z,15.77
2022-10-03T07:41:52.286Z,15.13
2022-10-03T07:44:47.980Z,14.65
2022-10-03T07:47:35.925Z,15.13
2022-10-03T07:50:50.308Z,15.63
2022-10-03T07:53:25.634Z,15.45
2022-10-03T07:56:16.123Z,13.88
2022-10-03T07:58:43.011Z,12.48
2022-10-03T08:01:31.210Z,13.70
2022-10-03T08:04:25.933Z,13.15
2022-10-03T08:07:26.638Z,12.27
2022-10-03T08:10:13.064Z,13.77
2022-10-03T08:12:56.365Z,15.68
2022-10-03T08:15:43.087Z,14.45
2022-10-03T08:18:34.422Z,11.80
2022-10-03T08:21:03.069Z,14.45
2022-10-03T08:23:47.972Z,14.65
2022-10-03T08:26:32.173Z,15.50
2022-10-03T08:29:04.466Z,14.02
2022-10-03T08:31:48.739Z,15.85
2022-10-03T08:34:40.120Z,15.73
2022-10-03T08:37:38.803Z,15.63
2022-10-03T08:40:42.049Z,15.57
2022-10-03T08:43:33.298Z,15.93
2022-10-03T08:46:12.673Z,15.55
2022-10-03T08:49:04.105Z,15.23
2022-10-03T08:51:53.545Z,11.95
2022-10-03T08:55:02.346Z,12.93
2022-10-03T08:57:58.970Z,12.20
2022-10-03T09:00:41.434Z,12.13
2022-10-03T09:03:43.184Z,10.60
2022-10-03T09:06:33.041Z,11.68
2022-10-03T09:09:24.171Z,11.25
2022-10-03T09:12:18.284Z,11.13
2022-10-03T09:15:22.556Z,10.23
2022-10-03T09:18:13.985Z,9.45
2022-10-03T09:21:13.078Z,8.25
2022-10-03T09:24:14.587Z,9.15
2022-10-03T09:27:13.436Z,7.72
2022-10-03T09:29:51.687Z,8.45
2022-10-03T09:32:30.176Z,6.55
2022-10-03T09:35:25.567Z,6.80
2022-10-03T09:38:02.816Z,6.15
2022-10-03T09:40:56.345Z,6.40
2022-10-03T09:43:48.145Z,6.68
2022-10-03T09:46:36.656Z,7.53
2022-10-03T09:49:48.145Z,7.43
2022-10-03T09:52:50.818Z,8.70
2022-10-03T09:55:49.497Z,8.45
2022-10-03T09:58:37.510Z,7.68
2022-10-03T10:01:09.884Z,8.60
2022-10-03T10:04:10.408Z,8.27
2022-10-03T10:06:42.908Z,8.23
2022-10-03T10:09:40.229Z,8.07
2022-10-03T10:12:27.410Z,8.05
2022-10-03T10:15:13.599Z,8.05
2022-10-03T10:18:04.669Z,6.47
2022-10-03T10:21:03.056Z,7.13
2022-10-03T10:23:55.621Z,5.18
2022-10-03T10:26:45.009Z,5.07
2022-10-03T10:29:44.417Z,4.28
2022-10-03T10:32:55.999Z,4.57
2022-10-03T10:35:40.344Z,6.90
2022-10-03T10:38:28.509Z,7.93
2022-10-03T10:40:59.898Z,7.57
2022-10-03T10:43:51.228Z,5.63
2022-10-03T10:46:45.693Z,5.65
2022-10-03T10:49:40.349Z,5.43
2022-10-03T10:52:48.643Z,5.40
2022-10-03T10:55:59.789Z,5.20
2022-10-03T10:58:59.761Z,4.70
2022-10-03T11:02:03.640Z,5.18
2022-10-03T11:05:07.364Z,5.15
2022-10-03T11:08:08.549Z,6.03
2022-10-03T11:11:13.868Z,5.80
2022-10-03T11:14:11.109Z,6.05
2022-10-03T11:17:15.750Z,5.63
2022-10-03T11:20:04.081Z,5.72
2022-10-03T11:22:39.444Z,5.82
2022-10-03T11:25:50.205Z,4.30
2022-10-03T11:28:46.485Z,5.17
2022-10-03T11:31:44.197Z,5.40
2022-10-03T11:34:32.319Z,5.32
2022-10-03T11:37:07.630Z,4.50
2022-10-03T11:39:42.826Z,4.03
2022-10-03T11:42:24.635Z,5.93
2022-10-03T11:45:06.601Z,5.90
2022-10-03T11:47:32.903Z,5.38
2022-10-03T11:50:39.020Z,5.57
2022-10-03T11:53:18.588Z,5.63
2022-10-03T11:55:57.910Z,5.40
2022-10-03T11:58:41.390Z,5.72
2022-10-03T12:01:16.626Z,6.80
2022-10-03T12:04:01.720Z,4.47
2022-10-03T12:07:17.353Z,4.35
2022-10-03T12:09:59.135Z,4.57
2022-10-03T12:12:43.233Z,8.25
2022-10-03T12:15:26.529Z,5.68
2022-10-03T12:18:14.937Z,6.25
2022-10-03T12:21:05.180Z,4.70
2022-10-03T12:24:03.966Z,5.80
2022-10-03T12:26:45.338Z,5.57
2022-10-03T12:32:00.281Z,7.10
2022-10-03T12:34:51.388Z,5.57
2022-10-03T12:37:43.326Z,3.92
2022-10-03T12:40:12.529Z,6.60
2022-10-03T12:43:02.722Z,3.72
2022-10-03T12:46:00.292Z,6.10
2022-10-03T12:48:47.888Z,5.15
2022-10-03T12:51:32.656Z,6.13
2022-10-03T12:54:17.150Z,5.20
2022-10-03T12:56:50.446Z,4.65
2022-10-03T12:59:35.508Z,5.18
2022-10-03T13:02:35.315Z,3.70
2022-10-03T13:05:37.454Z,4.13
2022-10-03T13:08:28.084Z,5.05
2022-10-03T13:11:07.006Z,3.72
2022-10-03T13:13:51.204Z,3.78
2022-10-03T13:16:50.353Z,3.40
2022-10-03T13:19:22.268Z,2.65
2022-10-03T13:22:28.072Z,3.00
2022-10-03T13:25:18.816Z,2.63
2022-10-03T13:28:00.536Z,2.22
2022-10-03T13:30:32.530Z,2.92
2022-10-03T13:33:14.124Z,2.40
2022-10-03T13:36:02.689Z,2.80
2022-10-03T13:39:07.877Z,2.83
2022-10-03T13:41:59.849Z,2.80
2022-10-03T13:44:40.638Z,2.75
2022-10-03T13:47:35.005Z,3.13
2022-10-03T13:50:09.123Z,3.20
2022-10-03T13:52:44.876Z,3.80
2022-10-03T13:55:19.430Z,2.80
2022-10-03T13:58:05.700Z,3.17
2022-10-03T14:00:53.581Z,3.03
2022-10-03T14:03:30.896Z,3.72
2022-10-03T14:06:12.298Z,3.05
2022-10-03T14:09:09.467Z,3.13
2022-10-03T14:11:49.158Z,3.75
2022-10-03T14:14:23.893Z,2.33
2022-10-03T14:17:04.815Z,2.60
2022-10-03T14:19:32.474Z,2.72
2022-10-03T14:22:35.617Z,2.95
2022-10-03T14:25:19.385Z,2.40
2022-10-03T14:27:54.213Z,2.70
2022-10-03T14:31:05.029Z,2.63
2022-10-03T14:33:43.495Z,2.85
2022-10-03T14:36:33.022Z,3.15
2022-10-03T14:39:11.568Z,5.68
2022-10-03T14:41:52.070Z,4.40
2022-10-03T14:44:21.658Z,3.80
2022-10-03T14:47:00.620Z,4.22
2022-10-03T14:52:43.562Z,4.32
2022-10-03T14:55:14.560Z,5.57
2022-10-03T14:58:05.998Z,4.47
2022-10-03T15:00:39.137Z,4.68
2022-10-03T15:03:17.579Z,3.58
2022-10-03T15:06:01.833Z,3.55
2022-10-03T15:08:40.121Z,4.40
2022-10-03T15:11:08.834Z,4.80
2022-10-03T15:13:40.872Z,4.70
2022-10-03T15:16:09.472Z,5.15
2022-10-03T15:18:37.897Z,6.50
2022-10-03T15:21:05.740Z,4.18
2022-10-03T15:23:41.088Z,3.38
2022-10-03T15:26:15.047Z,3.78
2022-10-03T15:28:46.792Z,3.40
2022-10-03T15:31:43.210Z,3.40
2022-10-03T15:34:19.241Z,3.30
2022-10-03T15:36:49.876Z,3.40
2022-10-03T15:39:30.512Z,4.05
2022-10-03T15:42:09.105Z,3.80
2022-10-03T15:44:50.222Z,3.95
2022-10-03T15:47:31.484Z,3.90
2022-10-03T15:50:17.420Z,4.10
2022-10-03T15:52:49.086Z,3.08
2022-10-03T15:55:25.241Z,3.88
2022-10-03T15:58:02.074Z,3.95
2022-10-03T16:00:31.261Z,4.20
2022-10-03T16:03:12.969Z,3.63
2022-10-03T16:06:02.022Z,3.72
2022-10-03T16:08:32.121Z,3.72
2022-10-03T16:11:04.690Z,3.45
2022-10-03T16:13:42.076Z,3.65
2022-10-03T16:16:22.160Z,3.92
2022-10-03T16:19:02.599Z,3.80
2022-10-03T16:22:05.486Z,3.77
2022-10-03T16:25:01.070Z,3.10
2022-10-03T16:27:31.015Z,3.28
2022-10-03T16:30:09.310Z,3.20
2022-10-03T16:33:00.533Z,3.00
2022-10-03T16:35:37.210Z,2.78
2022-10-03T16:38:13.888Z,3.20
2022-10-03T16:40:40.811Z,3.78
2022-10-03T16:43:09.770Z,3.58
2022-10-03T16:45:46.212Z,3.42
2022-10-03T16:48:53.050Z,3.75
2022-10-03T16:51:35.970Z,4.95
2022-10-03T16:54:03.841Z,6.57
2022-10-03T16:56:36.531Z,5.78
2022-10-03T16:59:12.297Z,6.25
2022-10-03T17:01:56.143Z,7.43
2022-10-03T17:04:24.564Z,7.78
2022-10-03T17:06:55.442Z,9.02
2022-10-03T17:09:30.846Z,9.45
2022-10-03T17:11:59.249Z,10.73
2022-10-03T17:14:35.500Z,13.05
2022-10-03T17:17:07.152Z,12.20
2022-10-03T17:19:42.503Z,6.43
2022-10-03T17:22:21.315Z,8.18
2022-10-03T17:25:03.296Z,9.38
2022-10-03T17:27:36.804Z,8.30
2022-10-03T17:30:14.125Z,7.50
2022-10-03T17:32:44.032Z,7.03
2022-10-03T17:35:15.441Z,8.07
2022-10-03T17:37:50.689Z,8.27
2022-10-03T17:41:00.429Z,10.77
2022-10-03T17:43:42.261Z,14.60
2022-10-03T17:46:20.557Z,13.38
2022-10-03T17:49:17.525Z,16.35
2022-10-03T17:51:47.401Z,21.80
2022-10-03T17:54:18.990Z,18.38
2022-10-03T17:57:01.969Z,14.52
2022-10-03T17:59:33.633Z,14.55
2022-10-03T18:02:18.506Z,14.25
2022-10-03T18:04:53.103Z,14.70
2022-10-03T18:07:23.968Z,16.80
2022-10-03T18:09:53.042Z,14.80
2022-10-03T18:12:27.888Z,13.55
2022-10-03T18:15:16.168Z,11.20
2022-10-03T18:18:07.660Z,10.75
2022-10-03T18:23:27.062Z,9.23
2022-10-03T18:26:22.628Z,9.75
2022-10-03T18:29:16.092Z,8.13
2022-10-03T18:31:50.067Z,10.43
2022-10-03T18:34:21.116Z,11.45
2022-10-03T18:36:52.709Z,11.52
2022-10-03T18:39:25.254Z,10.82
2022-10-03T18:42:00.297Z,12.20
2022-10-03T18:44:30.454Z,13.38
2022-10-03T18:47:17.688Z,16.27
2022-10-03T18:49:55.962Z,18.13
2022-10-03T18:52:27.760Z,18.77
2022-10-03T18:55:21.172Z,23.05
2022-10-03T18:58:00.126Z,19.33
2022-10-03T19:00:30.022Z,19.90
2022-10-03T19:03:08.316Z,18.83
2022-10-03T19:06:29.589Z,18.45
2022-10-03T19:09:22.204Z,16.38
2022-10-03T19:11:59.936Z,15.43
2022-10-03T19:14:33.684Z,16.75
2022-10-03T19:17:21.942Z,18.45
2022-10-03T19:19:59.422Z,18.25
2022-10-03T19:22:32.898Z,26.35
2022-10-03T19:25:05.166Z,20.65
2022-10-03T19:27:59.679Z,15.15
2022-10-03T19:30:28.940Z,18.98
2022-10-03T19:33:02.228Z,18.05
2022-10-03T19:35:30.636Z,17.58
2022-10-03T19:38:06.076Z,23.15
2022-10-03T19:40:52.279Z,19.70
2022-10-03T19:43:21.477Z,19.83
2022-10-03T19:46:22.454Z,19.27
2022-10-03T19:49:00.790Z,18.10
2022-10-03T19:51:28.061Z,16.25
2022-10-03T19:53:59.722Z,16.08
2022-10-03T19:56:31.431Z,15.32
2022-10-03T19:59:05.823Z,15.70
2022-10-03T20:01:46.979Z,15.77
2022-10-03T20:04:16.784Z,16.55
2022-10-03T20:06:48.301Z,14.75
2022-10-03T20:09:28.743Z,11.90
2022-10-03T20:12:09.894Z,13.23
2022-10-03T20:14:40.560Z,13.32
2022-10-03T20:17:19.532Z,12.57
2022-10-03T20:20:06.239Z,14.25
2022-10-03T20:22:36.676Z,11.77
2022-10-03T20:25:08.146Z,12.00
2022-10-03T20:30:45.143Z,10.35
2022-10-03T20:33:33.421Z,9.48
2022-10-03T20:36:22.190Z,7.30
2022-10-03T20:39:11.414Z,4.90
2022-10-03T20:41:59.487Z,5.55
2022-10-03T20:44:28.203Z,7.15
2022-10-03T20:47:06.450Z,6.68
2022-10-03T20:49:42.813Z,6.07
2022-10-03T20:52:17.796Z,6.90
2022-10-03T20:54:52.686Z,7.68
2022-10-03T20:57:25.730Z,10.10
2022-10-03T21:00:17.207Z,9.88
2022-10-03T21:05:40.698Z,12.57
2022-10-03T21:08:21.172Z,13.57
2022-10-03T21:10:54.648Z,11.63
2022-10-03T21:13:43.957Z,12.98
2022-10-03T21:16:23.006Z,13.80
2022-10-03T21:18:52.133Z,19.05
2022-10-03T21:21:28.038Z,18.52
2022-10-03T21:24:24.058Z,18.75
2022-10-03T21:27:00.085Z,17.15
2022-10-03T21:29:32.558Z,17.05
2022-10-03T21:32:26.563Z,16.80
2022-10-03T21:35:01.739Z,14.30
2022-10-03T21:37:35.781Z,15.15
2022-10-03T21:40:25.727Z,12.75
2022-10-03T21:43:10.872Z,13.65
2022-10-03T21:45:46.439Z,13.35
2022-10-03T21:48:30.522Z,12.60
2022-10-03T21:51:03.213Z,11.60
2022-10-03T21:53:54.749Z,10.88
2022-10-03T21:59:13.968Z,8.07
2022-10-03T22:01:52.932Z,7.57
2022-10-03T22:04:40.977Z,7.20
2022-10-03T22:07:13.480Z,10.20
2022-10-03T22:09:53.891Z,11.73
2022-10-03T22:12:21.464Z,14.75
2022-10-03T22:15:10.176Z,17.20
2022-10-03T22:17:53.869Z,16.25
2022-10-03T22:20:26.127Z,13.77
2022-10-03T22:23:17.156Z,12.50
2022-10-03T22:25:53.233Z,13.43
2022-10-03T22:28:37.045Z,13.73
2022-10-03T22:31:25.975Z,14.38
2022-10-03T22:34:17.367Z,14.27
2022-10-03T22:36:44.597Z,13.52
2022-10-03T22:39:15.086Z,13.77
2022-10-03T22:41:45.611Z,14.60
2022-10-03T22:44:14.395Z,11.13
2022-10-03T22:46:44.357Z,11.00
2022-10-03T22:49:22.716Z,8.93
2022-10-03T22:51:53.247Z,8.13
2022-10-03T22:54:19.619Z,8.23
2022-10-03T22:56:51.798Z,7.47
2022-10-03T22:59:25.320Z,7.47
2022-10-03T23:01:54.427Z,8.52
2022-10-03T23:04:32.601Z,8.75
2022-10-03T23:07:15.589Z,10.77
2022-10-03T23:09:56.976Z,13.02
2022-10-03T23:12:29.682Z,11.85
2022-10-03T23:15:00.352Z,10.90
2022-10-03T23:17:32.824Z,9.80
2022-10-03T23:20:02.310Z,9.27
2022-10-03T23:22:31.383Z,7.22
2022-10-03T23:25:16.814Z,7.30
2022-10-03T23:27:50.765Z,7.53
2022-10-03T23:30:17.134Z,7.45
2022-10-03T23:32:46.498Z,7.13
2022-10-03T23:35:17.471Z,7.90
2022-10-03T23:37:48.921Z,7.63
2022-10-03T23:45:24.443Z,8.25
2022-10-03T23:48:02.365Z,6.43
2022-10-03T23:50:44.039Z,7.47
2022-10-03T23:53:35.042Z,7.60
2022-10-03T23:56:04.556Z,6.72
2022-10-03T23:58:36.646Z,6.72
